Time;durP1;ratioP1;P1;durP2;ratioP2;P2;SDS_P1;SDS_P2;PMS_P1;PMS_P2;Temp;Humidity;BMP_temperature;BMP_pressure;BME280_temperature;BME280_humidity;BME280_pressure;Samples;Min_cycle;Max_cycle;Signal;HPM_P1;HPM_P2
2021/04/18 00:01:02;;;;;;;8.70;3.50;;;6.40;99.90;;;;;;5133629;27;20942;-63
2021/04/18 00:03:28;;;;;;;12.77;3.90;;;6.30;99.90;;;;;;5129682;27;20456;-64
2021/04/18 00:05:54;;;;;;;11.17;4.17;;;6.30;99.90;;;;;;5123440;27;20544;-65
2021/04/18 00:08:21;;;;;;;12.30;3.73;;;6.30;99.90;;;;;;5133264;27;20460;-64
2021/04/18 00:10:47;;;;;;;14.37;4.33;;;6.20;99.90;;;;;;5124167;27;20452;-64
2021/04/18 00:13:15;;;;;;;12.33;4.73;;;6.20;99.90;;;;;;5115184;28;20491;-64
2021/04/18 00:15:43;;;;;;;16.13;3.80;;;6.10;99.90;;;;;;5134122;27;20449;-64
2021/04/18 00:18:10;;;;;;;12.43;3.60;;;6.10;99.90;;;;;;5135236;27;21089;-63
2021/04/18 00:20:36;;;;;;;13.00;4.00;;;6.00;99.90;;;;;;5135503;27;20444;-64
2021/04/18 00:23:03;;;;;;;16.83;4.50;;;6.00;99.90;;;;;;5135043;27;20566;-63
2021/04/18 00:25:30;;;;;;;23.93;6.03;;;6.00;99.90;;;;;;5135660;27;20459;-63
2021/04/18 00:27:57;;;;;;;34.87;11.30;;;5.90;99.90;;;;;;5135298;27;20444;-64
2021/04/18 00:30:25;;;;;;;40.37;18.67;;;5.90;99.90;;;;;;5135364;27;20484;-64
2021/04/18 00:32:52;;;;;;;47.63;21.87;;;5.90;99.90;;;;;;5135274;27;20526;-63
2021/04/18 00:35:19;;;;;;;55.17;26.30;;;5.80;99.90;;;;;;5134946;27;20458;-64
2021/04/18 00:37:46;;;;;;;57.17;27.37;;;5.80;99.90;;;;;;5134448;27;20482;-62
2021/04/18 00:40:15;;;;;;;65.90;38.20;;;5.80;99.90;;;;;;5134251;27;20456;-65
2021/04/18 00:42:42;;;;;;;61.90;39.03;;;5.80;99.90;;;;;;5134649;27;20456;-65
2021/04/18 00:45:10;;;;;;;63.83;41.00;;;5.70;99.90;;;;;;5135432;27;20449;-65
2021/04/18 00:47:40;;;;;;;60.07;30.83;;;5.70;99.90;;;;;;5134710;27;20452;-63
2021/04/18 00:50:08;;;;;;;58.97;24.60;;;5.60;99.90;;;;;;5135195;27;20448;-64
2021/04/18 00:52:34;;;;;;;53.57;22.63;;;5.60;99.90;;;;;;5134819;27;20532;-64
2021/04/18 00:55:01;;;;;;;57.37;21.43;;;5.60;99.90;;;;;;5134890;27;20447;-64
2021/04/18 00:57:27;;;;;;;52.27;18.10;;;5.60;99.90;;;;;;5134081;27;20473;-64
2021/04/18 00:59:55;;;;;;;47.53;18.30;;;5.50;99.90;;;;;;5135129;27;20532;-63
2021/04/18 01:02:21;;;;;;;56.67;21.30;;;5.50;99.90;;;;;;5134192;27;20449;-63
2021/04/18 01:04:48;;;;;;;49.53;20.50;;;5.40;99.90;;;;;;5134377;27;20532;-64
2021/04/18 01:07:15;;;;;;;48.40;17.13;;;5.40;99.90;;;;;;5133856;27;20445;-63
2021/04/18 01:09:41;;;;;;;53.67;19.87;;;5.40;99.90;;;;;;5134758;27;20890;-62
2021/04/18 01:12:08;;;;;;;53.63;18.67;;;5.40;99.90;;;;;;5134341;27;21044;-62
2021/04/18 01:14:35;;;;;;;50.57;16.83;;;5.40;99.90;;;;;;5133832;27;20511;-62
2021/04/18 01:17:01;;;;;;;51.73;18.33;;;5.30;99.90;;;;;;5134053;27;20508;-62
2021/04/18 01:19:27;;;;;;;50.00;14.40;;;5.30;99.90;;;;;;5134465;27;20519;-63
2021/04/18 01:21:54;;;;;;;48.43;13.07;;;5.30;99.90;;;;;;5133398;27;20456;-62
2021/04/18 01:24:21;;;;;;;49.47;12.70;;;5.30;99.90;;;;;;5130228;27;20453;-63
2021/04/18 01:26:47;;;;;;;48.23;12.33;;;5.20;99.90;;;;;;5133863;27;20456;-63
2021/04/18 01:29:13;;;;;;;50.93;13.30;;;5.30;99.90;;;;;;5127350;27;20491;-64
2021/04/18 01:31:40;;;;;;;52.70;14.60;;;5.30;99.90;;;;;;5133733;27;20476;-62
2021/04/18 01:34:06;;;;;;;50.73;13.20;;;5.40;99.90;;;;;;5126223;27;20451;-63
2021/04/18 01:36:33;;;;;;;58.43;15.27;;;5.50;99.90;;;;;;5134132;27;20880;-63
2021/04/18 01:39:00;;;;;;;53.33;11.73;;;5.60;99.90;;;;;;5128224;27;20505;-65
2021/04/18 01:41:26;;;;;;;72.47;12.73;;;5.70;99.90;;;;;;5130238;27;20447;-63
2021/04/18 01:43:53;;;;;;;53.93;14.60;;;5.80;99.90;;;;;;5132637;27;20451;-64
2021/04/18 01:46:20;;;;;;;52.80;15.20;;;5.90;99.90;;;;;;5133711;27;20503;-64
2021/04/18 01:48:46;;;;;;;53.20;15.17;;;6.00;99.90;;;;;;5133141;27;20452;-63
2021/04/18 01:51:12;;;;;;;60.93;21.50;;;6.10;99.90;;;;;;5133591;27;20505;-64
2021/04/18 01:53:39;;;;;;;56.43;21.47;;;6.20;99.90;;;;;;5136887;27;20458;-65
2021/04/18 01:56:07;;;;;;;51.53;18.37;;;6.30;99.90;;;;;;5135454;27;20504;-63
2021/04/18 01:58:34;;;;;;;55.67;21.17;;;6.40;99.90;;;;;;5133589;27;20976;-64
2021/04/18 02:01:01;;;;;;;55.77;21.67;;;6.40;99.90;;;;;;5133333;27;20812;-64
2021/04/18 02:03:27;;;;;;;58.63;21.63;;;6.50;99.90;;;;;;5133832;27;20450;-63
2021/04/18 02:05:54;;;;;;;54.97;19.27;;;6.50;99.90;;;;;;5133455;27;20516;-64
2021/04/18 02:08:20;;;;;;;54.83;21.53;;;6.60;99.90;;;;;;5133173;27;20448;-63
2021/04/18 02:10:46;;;;;;;56.93;22.57;;;6.60;99.90;;;;;;5133496;27;20444;-63
2021/04/18 02:13:14;;;;;;;58.70;27.50;;;6.60;99.90;;;;;;5133050;27;20482;-64
2021/04/18 02:15:40;;;;;;;51.63;18.60;;;6.70;99.90;;;;;;5133582;27;20488;-64
2021/04/18 02:18:06;;;;;;;56.90;20.10;;;6.70;99.90;;;;;;5132761;27;20448;-64
2021/04/18 02:20:33;;;;;;;61.37;30.27;;;6.70;99.90;;;;;;5133530;27;20453;-63
2021/04/18 02:22:59;;;;;;;54.33;21.90;;;6.80;99.90;;;;;;5132970;27;20533;-65
2021/04/18 02:25:25;;;;;;;55.40;22.57;;;6.80;99.90;;;;;;5132914;27;20544;-63
2021/04/18 02:27:52;;;;;;;60.40;35.00;;;6.80;99.90;;;;;;5132977;27;20813;-63
2021/04/18 02:30:20;;;;;;;68.83;37.00;;;6.80;99.90;;;;;;5114499;27;20467;-64
2021/04/18 02:32:47;;;;;;;61.50;37.00;;;6.80;99.90;;;;;;5127930;27;20515;-64
2021/04/18 02:35:16;;;;;;;61.50;36.23;;;6.80;99.90;;;;;;5133169;27;20527;-63
2021/04/18 02:37:42;;;;;;;62.53;39.43;;;6.70;99.90;;;;;;5132774;27;20575;-63
2021/04/18 02:40:09;;;;;;;66.77;43.93;;;6.60;99.90;;;;;;5133012;27;20456;-64
2021/04/18 02:42:38;;;;;;;71.93;41.90;;;6.50;99.90;;;;;;5132737;27;20459;-63
2021/04/18 02:45:06;;;;;;;72.17;50.30;;;6.40;99.90;;;;;;5132364;27;20564;-64
2021/04/18 02:47:33;;;;;;;75.43;48.73;;;6.40;99.90;;;;;;5132673;27;20487;-64
2021/04/18 02:49:59;;;;;;;72.17;49.40;;;6.30;99.90;;;;;;5132793;27;20848;-63
2021/04/18 02:52:25;;;;;;;74.50;64.87;;;6.30;99.90;;;;;;5132487;28;20484;-63
2021/04/18 02:54:52;;;;;;;76.63;52.87;;;6.30;99.90;;;;;;5132709;28;20953;-64
2021/04/18 02:57:19;;;;;;;72.73;54.83;;;6.40;99.90;;;;;;5132033;28;20457;-63
2021/04/18 02:59:45;;;;;;;65.47;41.93;;;6.50;99.90;;;;;;5132668;27;20897;-63
2021/04/18 03:02:12;;;;;;;76.33;60.83;;;6.50;99.90;;;;;;5134091;27;20483;-64
2021/04/18 03:04:39;;;;;;;74.33;43.73;;;6.50;99.90;;;;;;5137077;27;20551;-64
2021/04/18 03:07:05;;;;;;;69.07;47.70;;;6.60;99.90;;;;;;5136781;27;20452;-63
2021/04/18 03:09:32;;;;;;;71.40;50.73;;;6.70;99.90;;;;;;5137218;27;20455;-63
2021/04/18 03:11:58;;;;;;;78.23;69.70;;;6.80;99.90;;;;;;5136601;27;20489;-63
2021/04/18 03:14:24;;;;;;;66.50;43.13;;;6.80;99.90;;;;;;5136474;27;20475;-63
2021/04/18 03:16:51;;;;;;;74.13;61.77;;;6.90;99.90;;;;;;5136703;27;20452;-63
2021/04/18 03:19:17;;;;;;;79.00;64.70;;;6.90;99.90;;;;;;5136471;27;20497;-64
2021/04/18 03:21:45;;;;;;;76.10;66.77;;;7.00;99.90;;;;;;5134940;27;20547;-63
2021/04/18 03:24:11;;;;;;;85.87;76.90;;;7.10;99.90;;;;;;5116566;27;20523;-63
2021/04/18 03:26:38;;;;;;;95.33;85.83;;;7.10;99.90;;;;;;5121674;27;21222;-63
2021/04/18 03:29:04;;;;;;;106.53;96.60;;;7.10;99.90;;;;;;5136927;27;20758;-64
2021/04/18 03:31:30;;;;;;;88.17;76.97;;;7.20;99.90;;;;;;5136478;27;20530;-65
2021/04/18 03:33:57;;;;;;;99.10;88.33;;;7.20;99.90;;;;;;5129446;27;20480;-64
2021/04/18 03:36:23;;;;;;;99.17;89.30;;;7.20;99.90;;;;;;5129239;27;20504;-63
2021/04/18 03:38:50;;;;;;;100.10;90.20;;;7.30;99.90;;;;;;5133464;27;20863;-64
2021/04/18 03:41:17;;;;;;;99.93;90.33;;;7.30;99.90;;;;;;5130597;27;20444;-63
2021/04/18 03:43:43;;;;;;;125.53;113.83;;;7.30;99.90;;;;;;5127657;27;20449;-63
2021/04/18 03:46:09;;;;;;;107.83;96.93;;;7.30;99.90;;;;;;5136281;27;20500;-64
2021/04/18 03:48:36;;;;;;;141.57;129.57;;;7.30;99.90;;;;;;5134998;27;20452;-63
2021/04/18 03:51:02;;;;;;;159.13;146.90;;;7.30;99.90;;;;;;5117027;27;20522;-63
2021/04/18 03:53:28;;;;;;;196.17;182.33;;;7.40;99.90;;;;;;5133749;27;20490;-62
2021/04/18 03:55:56;;;;;;;188.47;174.63;;;7.40;99.90;;;;;;5127814;27;20448;-63
2021/04/18 03:58:22;;;;;;;147.47;135.47;;;7.50;99.90;;;;;;5135891;27;20448;-63
2021/04/18 04:00:48;;;;;;;116.67;105.33;;;7.50;99.90;;;;;;5136302;27;20448;-64
2021/04/18 04:03:15;;;;;;;125.43;114.40;;;7.50;99.90;;;;;;5135715;27;20863;-63
2021/04/18 04:05:41;;;;;;;164.97;152.00;;;7.40;99.90;;;;;;5135724;27;20826;-63
2021/04/18 04:08:07;;;;;;;215.43;200.13;;;7.30;99.90;;;;;;5134976;27;20929;-62
2021/04/18 04:10:34;;;;;;;152.07;140.00;;;7.50;99.90;;;;;;5135864;27;20463;-65
2021/04/18 04:13:01;;;;;;;174.33;161.83;;;7.40;99.90;;;;;;5135696;27;20484;-61
2021/04/18 04:15:27;;;;;;;162.13;149.63;;;7.50;99.90;;;;;;5135492;27;20810;-63
2021/04/18 04:17:53;;;;;;;222.03;206.67;;;7.50;99.90;;;;;;5135146;27;20968;-62
2021/04/18 04:20:20;;;;;;;222.77;208.07;;;7.50;99.90;;;;;;5135499;27;20531;-64
2021/04/18 04:22:46;;;;;;;239.67;224.03;;;7.50;99.90;;;;;;5135108;27;20544;-62
2021/04/18 04:25:13;;;;;;;237.67;221.97;;;7.50;99.90;;;;;;5135633;27;20453;-62
2021/04/18 04:27:39;;;;;;;256.90;239.70;;;7.60;99.90;;;;;;5134893;27;20452;-63
2021/04/18 04:30:08;;;;;;;241.30;225.40;;;7.50;99.90;;;;;;5135754;27;20801;-63
2021/04/18 04:32:34;;;;;;;269.57;251.87;;;7.50;99.90;;;;;;5134852;27;20483;-65
2021/04/18 04:35:01;;;;;;;179.87;169.80;;;7.40;99.90;;;;;;5133842;27;20484;-63
2021/04/18 04:37:27;;;;;;;366.27;348.63;;;7.40;99.90;;;;;;5134181;27;20454;-56
2021/04/18 04:39:54;;;;;;;185.73;171.67;;;8.00;99.90;;;;;;5134978;27;20991;-47
2021/04/18 04:42:20;;;;;;;296.90;279.53;;;8.60;99.90;;;;;;5134872;27;20448;-49
2021/04/18 04:44:46;;;;;;;121.63;109.60;;;8.90;99.90;;;;;;5134535;27;20449;-61
2021/04/18 04:47:13;;;;;;;274.57;258.17;;;9.00;99.90;;;;;;5134962;27;20449;-63
2021/04/18 04:49:40;;;;;;;212.70;197.27;;;8.80;99.90;;;;;;5134366;27;20463;-62
2021/04/18 04:52:09;;;;;;;376.17;355.90;;;8.70;99.90;;;;;;5133716;27;20480;-64
2021/04/18 04:54:36;;;;;;;272.17;255.57;;;8.40;99.90;;;;;;5133397;27;20807;-63
2021/04/18 04:57:02;;;;;;;360.10;340.23;;;8.30;99.90;;;;;;5133027;27;20471;-62
2021/04/18 04:59:28;;;;;;;266.77;250.37;;;8.30;99.90;;;;;;5133301;27;20519;-62
2021/04/18 05:01:55;;;;;;;197.43;182.50;;;8.20;99.90;;;;;;5133752;27;20511;-62
2021/04/18 05:04:22;;;;;;;284.10;265.23;;;8.10;99.90;;;;;;5133652;27;20452;-62
2021/04/18 05:06:48;;;;;;;293.93;276.23;;;8.10;99.90;;;;;;5134242;27;20463;-61
2021/04/18 05:09:15;;;;;;;253.60;236.90;;;8.00;99.90;;;;;;5134948;27;21021;-62
2021/04/18 05:11:41;;;;;;;261.37;243.97;;;8.00;99.90;;;;;;5130839;27;20527;-62
2021/04/18 05:14:07;;;;;;;291.23;272.93;;;8.00;99.90;;;;;;5133985;27;20434;-67
2021/04/18 05:16:34;;;;;;;240.80;224.23;;;8.00;99.90;;;;;;5132962;27;20532;-63
2021/04/18 05:19:00;;;;;;;215.67;199.60;;;8.00;99.90;;;;;;5130445;27;20437;-62
2021/04/18 05:21:27;;;;;;;239.93;223.67;;;8.10;99.90;;;;;;5130193;27;20472;-64
2021/04/18 05:23:54;;;;;;;276.00;258.37;;;8.10;99.90;;;;;;5127726;27;20871;-61
2021/04/18 05:26:20;;;;;;;335.23;315.37;;;8.10;99.90;;;;;;5120483;27;20535;-66
2021/04/18 05:28:47;;;;;;;346.07;324.73;;;7.90;99.90;;;;;;5132433;27;20456;-62
2021/04/18 05:31:13;;;;;;;315.07;292.50;;;8.00;99.90;;;;;;5122146;27;20480;-62
2021/04/18 05:33:39;;;;;;;343.93;322.17;;;8.10;99.90;;;;;;5113565;28;20731;-63
2021/04/18 05:36:06;;;;;;;352.37;331.90;;;8.30;99.90;;;;;;5124658;27;20793;-66
2021/04/18 05:38:34;;;;;;;302.73;284.70;;;8.30;99.90;;;;;;5134359;27;20451;-63
2021/04/18 05:41:00;;;;;;;547.40;515.93;;;8.30;99.90;;;;;;5133728;27;20514;-63
2021/04/18 05:43:26;;;;;;;392.47;369.83;;;8.40;99.90;;;;;;5133677;27;20466;-67
2021/04/18 05:45:53;;;;;;;408.07;385.30;;;8.30;99.90;;;;;;5133757;27;20528;-62
2021/04/18 05:48:19;;;;;;;519.73;491.83;;;8.30;99.90;;;;;;5128562;27;20953;-64
2021/04/18 05:50:46;;;;;;;327.97;308.07;;;8.50;99.90;;;;;;5126910;27;20536;-62
2021/04/18 05:53:13;;;;;;;329.77;310.00;;;8.60;99.90;;;;;;5124633;27;20480;-62
2021/04/18 05:55:40;;;;;;;300.17;281.97;;;8.60;99.90;;;;;;5127704;27;20560;-65
2021/04/18 05:58:07;;;;;;;330.30;309.60;;;8.50;99.90;;;;;;5133640;27;20573;-65
2021/04/18 06:00:33;;;;;;;340.90;321.60;;;8.60;99.90;;;;;;5131084;27;20485;-65
2021/04/18 06:03:00;;;;;;;320.87;301.93;;;8.70;99.90;;;;;;5122428;27;20786;-63
2021/04/18 06:05:26;;;;;;;363.50;341.43;;;8.80;99.90;;;;;;5125354;27;20459;-62
2021/04/18 06:07:53;;;;;;;290.73;272.67;;;8.80;99.90;;;;;;5131037;27;20492;-66
2021/04/18 06:10:19;;;;;;;297.70;279.10;;;8.90;99.90;;;;;;5126400;27;20449;-62
2021/04/18 06:12:46;;;;;;;249.97;233.00;;;9.10;99.90;;;;;;5122547;27;20481;-62
2021/04/18 06:15:13;;;;;;;243.97;227.23;;;9.40;99.90;;;;;;5120470;27;20445;-66
2021/04/18 06:17:39;;;;;;;261.23;243.60;;;9.50;99.90;;;;;;5129848;27;20494;-66
2021/04/18 06:20:08;;;;;;;340.77;320.10;;;9.70;99.90;;;;;;5115463;27;20496;-64
2021/04/18 06:22:36;;;;;;;171.63;156.90;;;9.70;99.90;;;;;;5118461;27;20861;-62
2021/04/18 06:25:03;;;;;;;304.73;285.87;;;9.60;99.90;;;;;;5123955;27;20440;-63
2021/04/18 06:27:29;;;;;;;558.23;528.23;;;9.40;99.90;;;;;;5123881;27;20444;-67
2021/04/18 06:29:57;;;;;;;575.40;543.53;;;9.20;99.90;;;;;;5125947;27;20451;-63
2021/04/18 06:32:23;;;;;;;689.47;651.30;;;9.30;99.90;;;;;;5126892;27;20989;-63
2021/04/18 06:34:49;;;;;;;314.87;295.33;;;9.30;99.90;;;;;;5118641;27;20544;-66
2021/04/18 06:37:15;;;;;;;499.90;472.93;;;9.30;99.90;;;;;;5127294;27;20531;-62
2021/04/18 06:39:42;;;;;;;265.07;247.57;;;9.40;99.90;;;;;;5127459;27;20481;-64
2021/04/18 06:42:14;;;;;;;252.43;234.93;;;9.40;99.90;;;;;;5130903;27;20807;-62
2021/04/18 06:44:41;;;;;;;402.10;378.97;;;9.40;99.90;;;;;;5124789;27;20820;-65
2021/04/18 06:47:09;;;;;;;863.10;815.50;;;9.50;99.90;;;;;;5126673;27;20934;-65
2021/04/18 06:49:37;;;;;;;541.30;511.87;;;9.60;99.90;;;;;;5120497;27;20190;-64
2021/04/18 06:52:04;;;;;;;560.67;530.13;;;9.80;99.90;;;;;;5121547;27;20480;-67
2021/04/18 06:54:33;;;;;;;664.37;626.17;;;9.90;99.90;;;;;;5125470;28;20476;-69
2021/04/18 06:56:59;;;;;;;254.57;237.80;;;10.00;99.90;;;;;;5118392;28;20452;-64
2021/04/18 06:59:25;;;;;;;550.50;519.83;;;10.30;99.90;;;;;;5126453;28;20539;-62
2021/04/18 07:01:52;;;;;;;619.70;584.57;;;10.30;99.90;;;;;;5119287;28;20455;-62
2021/04/18 07:04:21;;;;;;;544.00;514.60;;;10.50;99.90;;;;;;5131303;28;20523;-63
2021/04/18 07:06:49;;;;;;;736.23;693.53;;;10.70;99.90;;;;;;5131573;28;21024;-65
2021/04/18 07:09:18;;;;;;;740.77;696.67;;;10.90;99.90;;;;;;5125861;28;20460;-61
2021/04/18 07:11:49;;;;;;;703.93;663.13;;;10.60;99.90;;;;;;5132939;27;20527;-63
2021/04/18 07:14:21;;;;;;;719.53;677.67;;;10.70;99.90;;;;;;5132421;28;20448;-60
2021/04/18 07:16:47;;;;;;;700.93;661.83;;;10.60;99.90;;;;;;5132580;27;20466;-62
2021/04/18 07:19:23;;;;;;;616.90;583.27;;;10.50;99.90;;;;;;5118878;28;20440;-63
2021/04/18 07:21:51;;;;;;;694.03;654.77;;;10.60;99.90;;;;;;5131684;27;20458;-65
2021/04/18 07:24:17;;;;;;;664.10;628.37;;;10.60;99.90;;;;;;5130664;27;20444;-66
2021/04/18 07:26:44;;;;;;;726.50;687.57;;;10.80;99.90;;;;;;5130666;28;20965;-62
2021/04/18 07:29:16;;;;;;;622.37;588.50;;;10.90;99.90;;;;;;5125739;28;20453;-63
2021/04/18 07:31:43;;;;;;;701.10;661.13;;;11.00;99.90;;;;;;5130780;28;20906;-66
2021/04/18 07:34:11;;;;;;;731.43;689.60;;;11.00;99.90;;;;;;5132099;28;20527;-62
2021/04/18 07:36:40;;;;;;;745.07;702.47;;;11.30;99.90;;;;;;5119355;27;20453;-62
2021/04/18 07:39:08;;;;;;;693.97;655.67;;;11.20;99.90;;;;;;5116476;28;20829;-62
2021/04/18 07:41:38;;;;;;;777.20;732.63;;;11.40;99.90;;;;;;5126977;28;20449;-64
2021/04/18 07:44:07;;;;;;;724.73;683.73;;;11.70;99.90;;;;;;5117619;28;20931;-68
2021/04/18 07:46:33;;;;;;;611.60;578.43;;;12.00;99.90;;;;;;5111570;28;20449;-62
2021/04/18 07:49:01;;;;;;;54.00;43.70;;;11.90;99.90;;;;;;5130862;27;20907;-65
2021/04/18 07:51:28;;;;;;;86.40;78.90;;;11.50;99.90;;;;;;5126961;27;20449;-63
2021/04/18 07:53:55;;;;;;;21.27;17.80;;;11.30;99.90;;;;;;5136241;27;20575;-62
2021/04/18 07:56:21;;;;;;;28.10;8.60;;;11.30;99.90;;;;;;5135423;27;20531;-63
2021/04/18 07:58:48;;;;;;;19.47;8.03;;;11.20;99.90;;;;;;5135651;27;20459;-63
2021/04/18 08:01:14;;;;;;;18.20;8.10;;;11.30;99.90;;;;;;5119455;27;20444;-63
2021/04/18 08:03:43;;;;;;;16.20;8.40;;;11.00;99.90;;;;;;5132707;27;20539;-62
2021/04/18 08:06:10;;;;;;;15.43;7.77;;;11.20;99.90;;;;;;5123645;27;21021;-66
2021/04/18 08:08:45;;;;;;;15.53;7.70;;;11.40;99.90;;;;;;5115815;27;20532;-66
2021/04/18 08:11:14;;;;;;;13.47;7.03;;;11.50;99.90;;;;;;5126379;27;20448;-63
2021/04/18 08:13:43;;;;;;;17.80;7.40;;;11.80;99.90;;;;;;5128598;27;20996;-64
2021/04/18 08:16:10;;;;;;;15.43;8.03;;;11.90;99.90;;;;;;5123433;27;20452;-64
2021/04/18 08:18:40;;;;;;;17.63;8.83;;;12.30;99.90;;;;;;5126632;27;20455;-61
2021/04/18 08:21:25;;;;;;;18.67;8.50;;;12.50;99.90;;;;;;5128727;27;20456;-63
2021/04/18 08:23:52;;;;;;;15.00;7.50;;;12.80;99.90;;;;;;5129669;27;20444;-63
2021/04/18 08:26:20;;;;;;;19.83;8.00;;;12.90;99.90;;;;;;5119791;27;20450;-63
2021/04/18 08:29:10;;;;;;;14.70;8.27;;;13.10;99.90;;;;;;5116081;27;20536;-64
2021/04/18 08:31:56;;;;;;;13.97;7.83;;;12.90;99.90;;;;;;5122280;27;20444;-63
2021/04/18 08:34:24;;;;;;;22.07;9.03;;;13.20;99.90;;;;;;5124187;27;20580;-66
2021/04/18 08:36:52;;;;;;;19.40;8.40;;;13.30;99.90;;;;;;5120448;27;20532;-64
2021/04/18 08:39:22;;;;;;;15.40;8.53;;;13.60;99.90;;;;;;5132344;27;20453;-63
2021/04/18 08:41:51;;;;;;;13.30;8.10;;;13.70;99.90;;;;;;5113795;27;20480;-63
2021/04/18 08:44:19;;;;;;;14.40;7.83;;;14.10;99.90;;;;;;5115224;28;20462;-61
2021/04/18 08:46:46;;;;;;;12.80;7.40;;;14.50;99.90;;;;;;5114446;28;20449;-66
2021/04/18 08:49:25;;;;;;;13.00;6.93;;;14.90;99.90;;;;;;5117115;27;20532;-63
2021/04/18 08:51:52;;;;;;;14.30;8.67;;;15.30;99.90;;;;;;5135187;27;20463;-63
2021/04/18 08:54:23;;;;;;;14.10;8.30;;;15.30;99.90;;;;;;5134982;27;20887;-63
2021/04/18 08:56:53;;;;;;;13.53;8.13;;;15.50;99.90;;;;;;5133248;27;20789;-66
2021/04/18 08:59:20;;;;;;;12.97;7.53;;;15.70;99.90;;;;;;5113622;27;20464;-66
2021/04/18 09:02:04;;;;;;;14.63;8.90;;;16.70;99.90;;;;;;5133675;27;20459;-65
2021/04/18 09:04:32;;;;;;;15.30;8.40;;;17.00;99.90;;;;;;5114491;28;20472;-63
2021/04/18 09:06:59;;;;;;;15.43;8.00;;;17.20;99.90;;;;;;5114365;28;20442;-63
2021/04/18 09:09:26;;;;;;;17.50;8.03;;;17.10;99.90;;;;;;5114130;28;20493;-65
2021/04/18 09:11:54;;;;;;;15.63;9.07;;;16.90;99.90;;;;;;5128051;27;20524;-63
2021/04/18 09:14:27;;;;;;;20.40;9.40;;;16.70;99.90;;;;;;5114056;28;20473;-64
2021/04/18 09:16:54;;;;;;;17.50;8.27;;;16.30;99.90;;;;;;5113990;28;20943;-62
2021/04/18 09:19:26;;;;;;;12.40;7.43;;;16.40;99.90;;;;;;5133188;27;20484;-63
2021/04/18 09:21:58;;;;;;;15.87;7.63;;;16.30;99.90;;;;;;5115797;27;20463;-64
2021/04/18 09:24:25;;;;;;;18.20;7.27;;;16.30;99.90;;;;;;5123781;27;20437;-62
2021/04/18 09:26:57;;;;;;;13.67;7.70;;;16.10;99.90;;;;;;5122614;27;20998;-63
2021/04/18 09:29:26;;;;;;;11.83;7.70;;;15.90;99.90;;;;;;5122285;27;20506;-68
2021/04/18 09:32:02;;;;;;;16.37;8.23;;;15.40;99.90;;;;;;5125584;27;20480;-63
2021/04/18 09:34:28;;;;;;;12.93;7.90;;;15.40;99.90;;;;;;5123256;27;20437;-63
2021/04/18 09:36:57;;;;;;;12.63;8.13;;;15.20;99.90;;;;;;5115174;27;20445;-63
2021/04/18 09:39:28;;;;;;;16.60;7.50;;;15.30;99.90;;;;;;5122816;27;20448;-63
2021/04/18 09:41:55;;;;;;;18.37;10.00;;;15.60;99.90;;;;;;5128799;27;20460;-63
2021/04/18 09:44:29;;;;;;;19.30;9.30;;;15.70;99.90;;;;;;5134137;27;20476;-63
2021/04/18 09:46:59;;;;;;;12.70;7.60;;;16.10;99.90;;;;;;5120478;27;20528;-63
2021/04/18 09:49:26;;;;;;;14.37;8.40;;;16.60;99.90;;;;;;5112572;27;20950;-62
2021/04/18 09:51:58;;;;;;;15.13;8.87;;;17.40;99.90;;;;;;5128080;27;20449;-63
2021/04/18 09:54:31;;;;;;;16.90;9.13;;;17.70;99.90;;;;;;5125642;27;20442;-63
2021/04/18 09:57:24;;;;;;;13.20;7.63;;;17.60;99.90;;;;;;5127086;27;20976;-63
2021/04/18 10:00:22;;;;;;;14.13;7.60;;;17.50;99.90;;;;;;5132526;27;20437;-63
2021/04/18 10:03:06;;;;;;;18.27;8.57;;;17.70;99.90;;;;;;5101189;27;21457;-65
2021/04/18 10:05:39;;;;;;;17.13;9.10;;;17.70;99.90;;;;;;5124872;27;20497;-63
2021/04/18 10:08:16;;;;;;;16.03;8.60;;;17.70;99.90;;;;;;5129124;27;20559;-64
2021/04/18 10:10:42;;;;;;;19.27;9.17;;;17.00;99.90;;;;;;5133613;27;20453;-64
2021/04/18 10:13:09;;;;;;;14.17;7.70;;;17.30;99.90;;;;;;5115900;27;20499;-66
2021/04/18 10:15:55;;;;;;;17.53;8.43;;;17.30;99.90;;;;;;5125365;27;20923;-63
2021/04/18 10:18:22;;;;;;;14.27;8.43;;;17.30;99.90;;;;;;5124958;27;20491;-63
2021/04/18 10:20:51;;;;;;;16.33;9.00;;;17.00;99.90;;;;;;5126834;27;20457;-66
2021/04/18 10:23:21;;;;;;;15.53;8.50;;;17.80;99.90;;;;;;5124192;27;20453;-62
2021/04/18 10:25:48;;;;;;;18.43;8.43;;;18.40;99.90;;;;;;5125905;27;20477;-63
2021/04/18 10:28:14;;;;;;;16.50;8.80;;;18.30;99.90;;;;;;5123195;27;20529;-65
2021/04/18 10:30:41;;;;;;;13.33;7.97;;;18.40;99.90;;;;;;5123816;27;20442;-62
2021/04/18 10:33:08;;;;;;;16.47;8.60;;;17.90;99.90;;;;;;5123024;27;20468;-63
2021/04/18 10:35:35;;;;;;;20.00;9.40;;;18.30;99.90;;;;;;5124608;27;20479;-62
2021/04/18 10:38:02;;;;;;;13.87;8.60;;;21.30;99.90;;;;;;5121040;27;20456;-63
2021/04/18 10:40:29;;;;;;;13.10;8.10;;;23.60;99.90;;;;;;5118212;27;20515;-66
2021/04/18 10:42:56;;;;;;;14.13;8.70;;;24.30;96.50;;;;;;5130882;27;20488;-64
2021/04/18 10:45:23;;;;;;;19.47;8.77;;;23.70;96.80;;;;;;5116514;28;20999;-64
2021/04/18 10:47:49;;;;;;;17.10;8.40;;;23.10;92.50;;;;;;5126743;27;21131;-64
2021/04/18 10:50:20;;;;;;;11.90;7.83;;;22.20;93.30;;;;;;5126677;27;20516;-63
2021/04/18 10:52:49;;;;;;;12.17;7.90;;;21.30;92.50;;;;;;5131733;27;20509;-63
2021/04/18 10:55:16;;;;;;;14.03;8.43;;;20.80;93.50;;;;;;5116197;28;20450;-62
2021/04/18 10:57:43;;;;;;;17.50;8.70;;;19.90;93.90;;;;;;5130727;28;20473;-62
2021/04/18 11:00:11;;;;;;;13.20;7.83;;;19.20;94.80;;;;;;5132399;28;20496;-65
2021/04/18 11:02:37;;;;;;;15.23;8.60;;;18.50;95.10;;;;;;5130962;28;20501;-64
2021/04/18 11:05:04;;;;;;;14.07;8.80;;;18.00;96.90;;;;;;5122103;27;20482;-65
2021/04/18 11:07:34;;;;;;;14.03;8.30;;;17.80;99.50;;;;;;5121072;28;20432;-63
2021/04/18 11:10:02;;;;;;;13.10;7.70;;;17.50;99.90;;;;;;5120218;28;20464;-62
2021/04/18 11:12:30;;;;;;;17.77;8.57;;;17.50;99.60;;;;;;5125875;27;20476;-63
2021/04/18 11:14:57;;;;;;;13.07;7.50;;;18.00;99.90;;;;;;5121530;28;20856;-63
2021/04/18 11:17:25;;;;;;;16.53;8.80;;;17.90;99.90;;;;;;5121770;27;20476;-63
2021/04/18 11:19:52;;;;;;;13.70;8.27;;;17.30;99.80;;;;;;5122441;28;20543;-62
2021/04/18 11:22:20;;;;;;;12.77;7.90;;;17.20;99.90;;;;;;5125805;27;20444;-63
2021/04/18 11:24:48;;;;;;;13.80;9.10;;;17.10;99.90;;;;;;5125854;27;20819;-62
2021/04/18 11:27:15;;;;;;;17.50;9.30;;;16.70;99.90;;;;;;5133850;27;20441;-61
2021/04/18 11:29:42;;;;;;;15.00;8.30;;;16.30;99.90;;;;;;5135437;27;20575;-61
2021/04/18 11:32:09;;;;;;;13.50;7.87;;;15.90;99.90;;;;;;5123422;27;20594;-68
2021/04/18 11:34:36;;;;;;;14.57;7.27;;;16.30;99.90;;;;;;5136521;27;20452;-64
2021/04/18 11:37:03;;;;;;;14.20;6.87;;;18.10;99.90;;;;;;5116017;27;20532;-64
2021/04/18 11:39:31;;;;;;;12.87;7.20;;;19.60;99.90;;;;;;5132213;27;20496;-64
2021/04/18 11:41:58;;;;;;;12.27;6.70;;;19.40;99.90;;;;;;5120873;27;20445;-63
2021/04/18 11:44:25;;;;;;;11.70;7.13;;;19.50;99.90;;;;;;5134607;27;20448;-64
2021/04/18 11:46:54;;;;;;;16.00;8.40;;;19.40;99.90;;;;;;5134476;27;20593;-66
2021/04/18 11:49:22;;;;;;;12.70;8.10;;;18.70;99.90;;;;;;5128469;27;20463;-63
2021/04/18 11:51:48;;;;;;;13.90;7.43;;;18.10;99.90;;;;;;5135610;27;20444;-64
2021/04/18 11:54:15;;;;;;;15.07;7.53;;;18.00;99.90;;;;;;5121234;27;20523;-63
2021/04/18 11:56:42;;;;;;;14.97;7.17;;;18.20;99.90;;;;;;5129467;27;20527;-63
2021/04/18 11:59:09;;;;;;;12.60;7.73;;;17.50;99.90;;;;;;5124056;27;20440;-63
2021/04/18 12:01:36;;;;;;;11.73;7.40;;;18.20;99.90;;;;;;5130608;27;20482;-63
2021/04/18 12:04:05;;;;;;;12.70;7.13;;;18.90;99.90;;;;;;5126354;27;20715;-64
2021/04/18 12:06:32;;;;;;;14.07;6.87;;;18.90;99.90;;;;;;5125336;27;20444;-64
2021/04/18 12:08:58;;;;;;;16.30;8.10;;;18.70;99.90;;;;;;5125384;27;20487;-63
2021/04/18 12:11:28;;;;;;;17.13;7.93;;;18.60;99.90;;;;;;5120923;27;20457;-66
2021/04/18 12:13:55;;;;;;;11.33;6.20;;;19.10;99.90;;;;;;5121914;27;20561;-63
2021/04/18 12:16:25;;;;;;;13.57;6.90;;;22.20;99.90;;;;;;5126329;27;20543;-64
2021/04/18 12:18:54;;;;;;;11.30;6.10;;;24.80;96.20;;;;;;5132799;27;20444;-63
2021/04/18 12:21:20;;;;;;;10.90;7.07;;;25.50;91.00;;;;;;5135305;27;20449;-64
2021/04/18 12:23:46;;;;;;;9.70;5.60;;;24.90;86.60;;;;;;5134444;27;20448;-64
2021/04/18 12:26:13;;;;;;;10.83;6.93;;;23.90;81.20;;;;;;5134033;27;20511;-63
2021/04/18 12:28:39;;;;;;;9.93;6.03;;;23.40;85.90;;;;;;5132762;27;20449;-63
2021/04/18 12:31:11;;;;;;;12.27;6.67;;;23.60;83.60;;;;;;5131779;27;20587;-67
2021/04/18 12:33:38;;;;;;;13.47;6.37;;;22.40;82.40;;;;;;5119174;27;20477;-63